Time;durP1;ratioP1;P1;durP2;ratioP2;P2;SDS_P1;SDS_P2;PMS_P1;PMS_P2;Temp;Humidity;BMP_temperature;BMP_pressure;BME280_temperature;BME280_humidity;BME280_pressure;Samples;Min_cycle;Max_cycle;Signal;HPM_P1;HPM_P2
2022/12/29 00:01:41;;;;;;;2.88;1.50;;;;;;;1.67;100.00;99252.56;5088896;28;20167;-53
2022/12/29 00:04:28;;;;;;;5.18;1.60;;;;;;;1.55;100.00;99221.06;5088493;28;20514;-55
2022/12/29 00:07:13;;;;;;;6.25;2.72;;;;;;;1.78;100.00;99251.69;5087875;28;20040;-53
2022/12/29 00:09:39;;;;;;;4.32;1.48;;;;;;;1.72;100.00;99265.41;5098304;28;20053;-50
2022/12/29 00:12:05;;;;;;;6.57;1.80;;;;;;;1.49;100.00;99254.41;5079498;28;20060;-55
2022/12/29 00:17:15;;;;;;;4.82;1.38;;;;;;;1.55;100.00;99244.97;5092910;28;20404;-52
2022/12/29 00:36:45;;;;;;;3.63;1.10;;;;;;;1.63;100.00;99265.41;5095659;28;20122;-49
2022/12/29 00:45:17;;;;;;;3.25;1.00;;;;;;;1.67;100.00;99267.13;5092867;28;20097;-51
2022/12/29 00:47:43;;;;;;;2.90;1.15;;;;;;;1.69;100.00;99280.75;5093151;28;20055;-55
2022/12/29 00:50:09;;;;;;;2.30;0.90;;;;;;;1.57;100.00;99274.00;5092327;28;20045;-54
2022/12/29 00:52:35;;;;;;;1.92;0.82;;;;;;;1.56;100.00;99282.56;5091628;28;20047;-54
2022/12/29 00:55:01;;;;;;;2.67;1.10;;;;;;;1.66;100.00;99280.78;5091313;28;20043;-54
2022/12/29 00:57:26;;;;;;;5.20;1.10;;;;;;;1.46;99.43;99283.47;5092000;28;20042;-51
2022/12/29 00:59:52;;;;;;;7.03;1.00;;;;;;;1.40;97.58;99283.47;5091761;28;20055;-56
2022/12/29 01:02:58;;;;;;;3.30;1.10;;;;;;;1.36;96.71;99283.50;5090941;28;20040;-54
2022/12/29 01:05:24;;;;;;;3.80;0.90;;;;;;;1.42;97.01;99276.63;5091741;28;20168;-54
2022/12/29 01:07:50;;;;;;;3.75;0.77;;;;;;;1.45;96.76;99283.47;5075500;28;20051;-56
2022/12/29 01:10:34;;;;;;;5.25;1.10;;;;;;;1.48;96.79;99278.31;5092318;28;20519;-54
2022/12/29 01:13:42;;;;;;;3.55;1.13;;;;;;;1.39;95.37;99283.47;5091919;28;20054;-53
2022/12/29 01:16:09;;;;;;;3.65;1.23;;;;;;;1.43;95.85;99286.00;5095270;28;20051;-54
2022/12/29 01:18:54;;;;;;;3.55;0.90;;;;;;;1.45;96.16;99299.69;5112692;28;20537;-56
2022/12/29 01:21:21;;;;;;;4.78;0.80;;;;;;;1.25;94.65;99284.41;5111246;28;20126;-54
2022/12/29 01:23:47;;;;;;;3.65;0.63;;;;;;;1.07;90.93;99292.13;5110406;28;20456;-51
2022/12/29 01:26:15;;;;;;;3.83;0.65;;;;;;;1.09;90.85;99295.53;5097136;28;20037;-54
2022/12/29 01:28:41;;;;;;;2.10;0.77;;;;;;;1.01;89.83;99296.38;5090053;28;20123;-55
2022/12/29 01:31:09;;;;;;;1.70;0.80;;;;;;;1.11;90.07;99290.38;5107602;28;20032;-54
2022/12/29 01:33:36;;;;;;;4.57;0.80;;;;;;;1.05;90.05;99293.81;5107653;28;20051;-55
2022/12/29 01:36:10;;;;;;;5.35;0.80;;;;;;;1.02;88.91;99295.53;5108641;28;20031;-54
2022/12/29 01:38:54;;;;;;;4.95;0.77;;;;;;;0.88;87.25;99300.69;5085327;28;20059;-54
2022/12/29 01:41:39;;;;;;;4.00;0.80;;;;;;;0.98;88.04;99304.94;5094577;28;20510;-55
2022/12/29 01:44:47;;;;;;;4.72;0.90;;;;;;;0.87;87.33;99305.81;5080339;28;20092;-52
2022/12/29 01:47:28;;;;;;;5.25;0.88;;;;;;;0.77;87.01;99298.16;5069009;28;20474;-54
2022/12/29 01:49:57;;;;;;;3.78;0.75;;;;;;;0.73;86.27;99298.16;5079122;28;20090;-54
2022/12/29 01:52:24;;;;;;;2.53;0.80;;;;;;;0.66;86.81;99299.88;5089933;28;20044;-53
2022/12/29 01:54:53;;;;;;;4.70;1.42;;;;;;;0.56;86.36;99290.50;5056400;28;20048;-54
2022/12/29 01:57:31;;;;;;;4.10;0.95;;;;;;;0.66;86.69;99299.03;5106786;28;20043;-52
2022/12/29 02:00:18;;;;;;;6.22;1.08;;;;;;;0.62;86.53;99294.75;5089805;28;20139;-50
2022/12/29 02:03:21;;;;;;;2.63;1.10;;;;;;;0.39;86.90;99293.06;5071125;28;20043;-54
2022/12/29 02:06:10;;;;;;;2.83;0.80;;;;;;;0.17;85.90;99310.94;5087759;28;20063;-52
2022/12/29 02:08:38;;;;;;;3.15;1.40;;;;;;;0.09;86.77;99302.41;5093699;28;20047;-54
2022/12/29 02:11:03;;;;;;;3.25;1.27;;;;;;;0.14;87.63;99300.72;5108854;28;20430;-52
2022/12/29 02:13:33;;;;;;;4.03;0.57;;;;;;;-0.10;87.65;99274.25;5089234;28;20458;-53
2022/12/29 02:16:02;;;;;;;3.60;1.17;;;;;;;0.09;88.43;99304.97;5090376;28;20036;-53
2022/12/29 02:19:11;;;;;;;1.88;0.45;;;;;;;-0.02;87.93;99310.91;5107355;28;20040;-53
2022/12/29 02:22:14;;;;;;;3.92;1.40;;;;;;;-0.15;87.30;99308.31;5089789;28;20032;-54
2022/12/29 02:25:05;;;;;;;3.45;1.10;;;;;;;-0.16;87.86;99304.09;5090742;28;20044;-52
2022/12/29 02:27:50;;;;;;;2.05;1.00;;;;;;;-0.08;88.66;99313.47;5091445;28;20165;-52
2022/12/29 02:30:35;;;;;;;6.70;1.48;;;;;;;-0.14;88.51;99316.00;5094779;28;20062;-55
2022/12/29 02:33:21;;;;;;;5.57;1.42;;;;;;;-0.08;89.38;99330.47;5090790;28;20046;-55
2022/12/29 02:36:34;;;;;;;4.88;1.60;;;;;;;-0.08;88.60;99321.13;5091162;28;20036;-51
2022/12/29 02:39:12;;;;;;;5.47;1.10;;;;;;;-0.15;88.60;99336.41;5090334;28;20042;-50
2022/12/29 02:41:55;;;;;;;7.63;1.48;;;;;;;-0.08;88.85;99330.47;5093291;28;20487;-53
2022/12/29 02:45:05;;;;;;;5.38;1.27;;;;;;;0.16;89.14;99339.91;5075353;28;20480;-49
2022/12/29 02:47:54;;;;;;;3.55;1.10;;;;;;;0.09;88.60;99341.59;5069017;28;20089;-53
2022/12/29 02:50:36;;;;;;;2.78;1.35;;;;;;;0.01;87.90;99338.16;5105302;28;20075;-53
2022/12/29 02:53:06;;;;;;;3.75;1.02;;;;;;;-0.01;88.12;99340.75;5088899;28;20059;-51
2022/12/29 02:55:52;;;;;;;3.40;1.00;;;;;;;-0.09;87.57;99332.19;5072343;28;20047;-53
2022/12/29 02:58:19;;;;;;;4.50;1.23;;;;;;;-0.06;87.79;99334.75;5092076;28;20051;-58
2022/12/29 03:01:13;;;;;;;5.72;1.58;;;;;;;-0.11;87.55;99341.56;5071366;28;20370;-51
2022/12/29 03:04:06;;;;;;;4.45;1.20;;;;;;;-0.10;87.51;99338.13;5068325;28;20052;-53
2022/12/29 03:06:52;;;;;;;5.63;1.30;;;;;;;-0.02;87.18;99333.91;5094885;28;20043;-51
2022/12/29 03:09:35;;;;;;;5.10;1.10;;;;;;;0.12;87.41;99335.63;5088886;28;20052;-56
2022/12/29 03:12:25;;;;;;;3.20;1.40;;;;;;;0.25;86.94;99342.47;5088157;28;20510;-49
2022/12/29 03:18:27;;;;;;;4.67;1.00;;;;;;;0.40;85.97;99353.59;5074518;28;20048;-53
2022/12/29 03:21:14;;;;;;;5.47;1.40;;;;;;;0.45;85.78;99353.59;5087605;28;20135;-55
2022/12/29 03:23:58;;;;;;;6.20;1.02;;;;;;;0.39;84.92;99349.31;5087429;28;20039;-54
2022/12/29 03:26:43;;;;;;;4.43;1.40;;;;;;;0.30;84.48;99346.75;5103774;28;20059;-53
2022/12/29 03:29:30;;;;;;;3.55;1.27;;;;;;;0.19;83.96;99351.00;5067222;28;20156;-56
2022/12/29 03:32:15;;;;;;;;;;;;;;;0.22;84.06;99361.22;5067452;28;20071;-53
2022/12/29 03:34:42;;;;;;;4.43;1.52;;;;;;;0.00;83.46;99365.41;5066987;28;19920;-51
2022/12/29 03:37:45;;;;;;;3.88;1.40;;;;;;;-0.12;83.89;99367.09;5057957;28;20090;-55
2022/12/29 03:40:12;;;;;;;5.50;1.20;;;;;;;-0.12;83.36;99355.19;5079218;28;20042;-56
2022/12/29 03:42:57;;;;;;;2.70;1.05;;;;;;;-0.01;83.23;99368.00;5087050;28;20128;-54
2022/12/29 03:45:23;;;;;;;6.45;1.25;;;;;;;0.08;83.37;99377.38;5053178;28;20046;-54
2022/12/29 03:47:49;;;;;;;2.88;1.10;;;;;;;0.19;83.50;99368.03;5086519;28;20048;-51
2022/12/29 03:50:17;;;;;;;2.75;1.10;;;;;;;0.23;82.99;99372.28;5053757;28;20123;-54
2022/12/29 03:53:02;;;;;;;4.05;1.70;;;;;;;0.11;82.19;99377.38;5088851;28;20083;-52
2022/12/29 03:55:46;;;;;;;7.53;1.40;;;;;;;0.09;82.81;99379.09;5087643;28;20062;-52
2022/12/29 03:58:30;;;;;;;6.68;1.42;;;;;;;-0.03;82.23;99385.00;5088233;28;20054;-53
2022/12/29 04:01:21;;;;;;;7.13;1.40;;;;;;;-0.08;81.93;99384.13;5104589;28;20060;-54
2022/12/29 04:04:06;;;;;;;5.78;1.27;;;;;;;-0.03;81.93;99387.56;5077076;28;20161;-53
2022/12/29 04:06:32;;;;;;;2.70;0.93;;;;;;;0.09;81.71;99389.31;5071053;28;20058;-53
2022/12/29 04:09:55;;;;;;;5.30;1.52;;;;;;;0.03;81.97;99387.59;5089595;28;20044;-52
2022/12/29 04:12:23;;;;;;;5.30;1.33;;;;;;;-0.12;81.51;99367.09;5097961;28;20085;-53
2022/12/29 04:14:49;;;;;;;3.00;1.17;;;;;;;0.02;81.58;99393.53;5082606;28;20130;-53
2022/12/29 04:17:15;;;;;;;3.92;1.00;;;;;;;-0.06;81.73;99397.78;5094303;28;20046;-51
2022/12/29 04:22:47;;;;;;;7.07;1.20;;;;;;;0.03;81.59;99390.13;5090994;28;20065;-52
2022/12/29 04:25:32;;;;;;;2.33;0.70;;;;;;;0.05;81.36;99390.16;5090033;28;20055;-53
2022/12/29 04:28:00;;;;;;;4.95;1.10;;;;;;;-0.43;80.67;99366.13;5075651;28;20518;-53
2022/12/29 04:30:46;;;;;;;3.35;1.23;;;;;;;-0.25;80.99;99394.28;5083694;28;20591;-51
2022/12/29 04:33:53;;;;;;;5.28;1.20;;;;;;;-0.26;80.85;99390.00;5074007;28;20130;-52
2022/12/29 04:36:20;;;;;;;2.80;1.10;;;;;;;-0.76;81.20;99323.41;5069906;28;20043;-52
2022/12/29 04:38:48;;;;;;;4.72;1.10;;;;;;;-0.40;81.30;99386.56;5096487;28;20085;-55
2022/12/29 04:41:32;;;;;;;2.10;1.10;;;;;;;-0.42;81.38;99385.72;5070214;28;20057;-56
2022/12/29 04:44:17;;;;;;;8.02;1.55;;;;;;;-0.26;81.45;99400.25;5104354;28;20042;-52
2022/12/29 04:47:12;;;;;;;5.70;1.25;;;;;;;-0.34;81.07;99381.50;5080846;28;20043;-54
2022/12/29 04:50:02;;;;;;;3.72;1.10;;;;;;;-0.30;81.61;99401.06;5071376;28;20040;-51
2022/12/29 04:52:48;;;;;;;6.13;1.00;;;;;;;-0.23;81.43;99402.81;5087483;28;20622;-54
2022/12/29 04:55:41;;;;;;;5.22;1.40;;;;;;;-0.34;81.20;99399.38;5088409;28;20065;-55
2022/12/29 04:58:26;;;;;;;2.38;1.10;;;;;;;-0.50;81.65;99383.13;5094578;28;20054;-55
2022/12/29 05:00:52;;;;;;;7.93;1.88;;;;;;;-0.36;81.63;99395.06;5087389;28;20143;-54
2022/12/29 05:03:39;;;;;;;2.42;1.38;;;;;;;-0.48;81.44;99409.53;5098521;28;20044;-56
2022/12/29 05:06:43;;;;;;;3.47;1.20;;;;;;;-0.76;81.98;99409.34;5105931;28;20036;-52
2022/12/29 05:09:29;;;;;;;3.05;1.30;;;;;;;-0.86;82.69;99411.84;5091257;28;20047;-51
2022/12/29 05:12:13;;;;;;;4.93;1.65;;;;;;;-0.77;82.86;99418.69;5088187;28;20048;-54
2022/12/29 05:15:08;;;;;;;5.88;1.70;;;;;;;-0.74;83.04;99417.88;5074733;28;20035;-52
2022/12/29 05:17:34;;;;;;;7.03;1.60;;;;;;;-0.71;82.58;99412.75;5087613;28;20211;-54
2022/12/29 05:20:19;;;;;;;5.70;2.28;;;;;;;-0.78;82.93;99423.78;5090710;28;20184;-52
2022/12/29 05:23:22;;;;;;;5.30;1.95;;;;;;;-1.03;83.31;99423.59;5088473;28;20044;-53
2022/12/29 05:26:14;;;;;;;3.65;1.63;;;;;;;-1.04;83.66;99432.09;5104787;28;20056;-55
2022/12/29 05:29:06;;;;;;;2.22;1.23;;;;;;;-1.13;83.77;99429.47;5061545;28;20039;-56
2022/12/29 05:31:33;;;;;;;5.78;1.63;;;;;;;-1.16;84.23;99431.16;5099809;27;20035;-54
2022/12/29 05:33:59;;;;;;;4.13;1.05;;;;;;;-1.13;84.04;99428.63;5106800;28;20070;-53
2022/12/29 05:36:43;;;;;;;4.00;1.88;;;;;;;-1.15;84.10;99435.41;5090591;28;20088;-51
2022/12/29 05:39:10;;;;;;;4.93;1.40;;;;;;;-1.20;84.34;99425.16;5124777;27;20672;-54
2022/12/29 05:41:37;;;;;;;5.63;1.40;;;;;;;-1.32;84.15;99410.63;5089961;28;20036;-51
2022/12/29 05:44:22;;;;;;;5.13;1.70;;;;;;;-1.17;84.16;99442.19;5102818;28;20081;-51
2022/12/29 05:47:09;;;;;;;10.68;2.38;;;;;;;-1.50;84.36;99405.34;5092001;28;20126;-53
2022/12/29 05:49:58;;;;;;;6.72;2.25;;;;;;;-1.34;84.79;99445.44;5086962;28;20462;-54
2022/12/29 05:52:42;;;;;;;5.40;1.73;;;;;;;-1.41;84.69;99435.16;5090009;28;20078;-51
2022/12/29 05:55:08;;;;;;;7.38;2.67;;;;;;;-1.54;85.06;99438.44;5070993;28;20068;-50
2022/12/29 05:57:36;;;;;;;7.03;2.40;;;;;;;-1.84;85.91;99388.91;5089454;28;20400;-55
2022/12/29 06:00:26;;;;;;;6.63;2.83;;;;;;;-1.39;86.00;99449.66;5103464;28;20587;-52
2022/12/29 06:03:11;;;;;;;4.60;2.13;;;;;;;-1.23;86.24;99449.78;5088574;28;20126;-55
2022/12/29 06:05:37;;;;;;;6.13;2.85;;;;;;;-1.39;85.55;99415.66;5088449;28;20511;-55
2022/12/29 06:08:22;;;;;;;4.80;2.72;;;;;;;-1.22;85.30;99448.94;5088859;28;20054;-53
2022/12/29 06:10:48;;;;;;;7.10;2.45;;;;;;;-1.27;85.03;99456.56;5085012;28;20071;-55
2022/12/29 06:13:14;;;;;;;8.63;3.08;;;;;;;-1.47;85.29;99433.44;5089954;28;20135;-56
2022/12/29 06:15:43;;;;;;;5.53;1.88;;;;;;;-1.39;85.33;99452.19;5089372;28;20484;-52
2022/12/29 06:18:09;;;;;;;10.38;3.10;;;;;;;-1.39;85.43;99451.34;5068518;28;20142;-56
2022/12/29 06:21:12;;;;;;;7.68;3.00;;;;;;;-1.39;85.15;99456.44;5084030;28;20051;-56
2022/12/29 06:23:57;;;;;;;10.35;2.88;;;;;;;-1.42;85.55;99451.31;5088571;28;20044;-54
2022/12/29 06:26:23;;;;;;;6.88;2.83;;;;;;;-1.36;85.70;99456.50;5087910;28;20036;-53
2022/12/29 06:28:49;;;;;;;10.55;3.03;;;;;;;-1.38;85.60;99456.47;5097111;27;20427;-53
2022/12/29 06:31:15;;;;;;;5.85;2.55;;;;;;;-1.57;85.52;99428.25;5072068;28;20082;-55
2022/12/29 06:33:41;;;;;;;8.27;2.90;;;;;;;-1.43;85.53;99457.25;5106104;28;20130;-55
2022/12/29 06:36:07;;;;;;;10.45;3.00;;;;;;;-1.36;85.79;99464.13;5102354;28;20039;-54
2022/12/29 06:38:52;;;;;;;6.57;2.50;;;;;;;-1.31;85.28;99462.50;5090592;28;20511;-52
2022/12/29 06:41:20;;;;;;;7.53;2.72;;;;;;;-1.44;85.11;99458.09;5083418;28;20096;-53
2022/12/29 06:44:18;;;;;;;5.40;2.75;;;;;;;-1.63;85.29;99440.91;5084670;28;20047;-56
2022/12/29 06:46:49;;;;;;;12.38;3.33;;;;;;;-1.82;85.34;99415.22;5096263;28;20447;-54
2022/12/29 06:49:34;;;;;;;8.93;3.30;;;;;;;-1.50;85.53;99469.06;5101130;28;20086;-56
2022/12/29 06:52:19;;;;;;;7.10;2.47;;;;;;;-1.51;85.13;99472.47;5099633;28;20039;-54
2022/12/29 06:55:03;;;;;;;5.45;2.97;;;;;;;-1.97;85.33;99411.66;5088284;28;20478;-55
2022/12/29 06:57:29;;;;;;;5.38;2.45;;;;;;;-1.62;85.41;99473.22;5095092;28;20057;-55
2022/12/29 07:00:33;;;;;;;8.50;2.65;;;;;;;-1.60;85.69;99471.50;5076623;28;20068;-51
2022/12/29 07:03:17;;;;;;;6.93;2.92;;;;;;;-1.79;85.58;99430.56;5078221;28;20079;-56
2022/12/29 07:06:02;;;;;;;9.23;2.70;;;;;;;-1.56;85.20;99469.00;5081437;28;20516;-53
2022/12/29 07:08:28;;;;;;;6.50;3.00;;;;;;;-1.68;85.47;99438.31;5095957;28;20043;-53
2022/12/29 07:10:54;;;;;;;6.03;3.20;;;;;;;-1.45;85.21;99472.53;5081496;28;20149;-53
2022/12/29 07:13:20;;;;;;;4.47;2.08;;;;;;;-1.40;85.24;99475.13;5081890;28;20070;-52
2022/12/29 07:15:45;;;;;;;5.60;3.25;;;;;;;-1.59;85.08;99463.03;5084731;28;20045;-53
2022/12/29 07:18:14;;;;;;;6.82;2.53;;;;;;;-1.81;85.34;99439.00;5083761;28;20761;-53
2022/12/29 07:20:40;;;;;;;8.88;2.97;;;;;;;-1.57;85.38;99481.75;5082959;28;20040;-52
2022/12/29 07:23:24;;;;;;;3.40;1.45;;;;;;;-1.60;85.22;99480.03;5078991;28;20533;-51
2022/12/29 07:26:08;;;;;;;9.20;3.63;;;;;;;-1.53;85.66;99486.03;5091368;28;20047;-54
2022/12/29 07:28:53;;;;;;;8.82;3.05;;;;;;;-1.52;85.59;99478.44;5084097;28;20039;-55
2022/12/29 07:31:37;;;;;;;4.07;1.75;;;;;;;-1.35;85.16;99474.31;5084467;28;20067;-51
2022/12/29 07:34:03;;;;;;;9.98;3.50;;;;;;;-1.29;84.75;99482.03;5089365;28;20105;-53
2022/12/29 07:36:48;;;;;;;9.60;3.35;;;;;;;-1.20;84.30;99475.34;5090402;28;20039;-51
2022/12/29 07:39:13;;;;;;;10.48;3.22;;;;;;;-1.14;83.90;99477.91;5074895;28;20036;-54
2022/12/29 07:41:40;;;;;;;7.13;3.00;;;;;;;-1.14;83.87;99477.91;5079780;28;20516;-52
2022/12/29 07:44:24;;;;;;;8.55;3.10;;;;;;;-0.96;83.60;99475.53;5080334;28;20048;-54
2022/12/29 07:47:11;;;;;;;9.43;3.17;;;;;;;-0.80;83.06;99489.28;5079646;28;20085;-52
2022/12/29 07:49:56;;;;;;;7.28;2.85;;;;;;;-0.75;82.48;99492.72;5080228;28;20048;-56
2022/12/29 07:52:59;;;;;;;4.55;2.30;;;;;;;-0.85;82.09;99489.25;5115849;27;20586;-56
2022/12/29 07:55:25;;;;;;;7.32;1.95;;;;;;;-1.03;81.68;99486.53;5081903;28;20119;-53
2022/12/29 07:57:55;;;;;;;5.78;2.50;;;;;;;-1.08;81.77;99483.06;5089438;28;20139;-54
2022/12/29 08:00:21;;;;;;;4.18;1.70;;;;;;;-1.14;82.04;99476.22;5070935;28;20080;-53
2022/12/29 08:02:47;;;;;;;4.75;2.08;;;;;;;-1.24;82.06;99473.56;5094044;28;20080;-53
2022/12/29 08:05:33;;;;;;;9.90;2.17;;;;;;;-1.10;81.81;99503.47;5076714;28;20131;-51
2022/12/29 08:08:17;;;;;;;6.55;2.50;;;;;;;-1.23;81.54;99511.00;5073429;28;20051;-53
2022/12/29 08:10:43;;;;;;;7.72;2.40;;;;;;;-1.34;81.58;99465.00;5076143;28;20029;-53
2022/12/29 08:13:27;;;;;;;3.85;2.22;;;;;;;-1.06;81.61;99501.81;5076045;28;20079;-52
2022/12/29 08:15:53;;;;;;;5.70;2.38;;;;;;;-1.03;81.27;99509.47;5086660;28;20070;-56
2022/12/29 08:18:19;;;;;;;10.55;3.25;;;;;;;-0.98;81.39;99506.13;5069713;28;20048;-53
2022/12/29 08:20:45;;;;;;;9.60;2.47;;;;;;;-0.93;81.15;99504.47;5081750;28;20077;-54
2022/12/29 08:23:11;;;;;;;6.18;2.45;;;;;;;-0.84;81.08;99505.41;5091526;28;20129;-54
2022/12/29 08:25:37;;;;;;;4.72;1.92;;;;;;;-0.83;80.27;99505.41;5085103;28;20533;-51
2022/12/29 08:28:03;;;;;;;4.00;1.63;;;;;;;-0.99;80.41;99503.56;5084012;28;20090;-54
2022/12/29 08:31:06;;;;;;;5.97;2.60;;;;;;;-1.03;80.52;99507.78;5083511;28;20044;-52
2022/12/29 08:33:50;;;;;;;7.13;2.47;;;;;;;-0.93;80.55;99514.69;5083251;28;20036;-52
2022/12/29 08:36:35;;;;;;;3.58;2.33;;;;;;;-1.28;80.54;99475.25;5092793;28;20040;-54
2022/12/29 08:39:19;;;;;;;8.73;2.40;;;;;;;-1.25;80.69;99517.75;5106825;28;20534;-54
2022/12/29 08:42:03;;;;;;;6.63;2.72;;;;;;;-1.34;81.45;99514.28;5086056;28;20581;-55
2022/12/29 08:44:48;;;;;;;9.45;3.15;;;;;;;-1.23;81.86;99516.94;5075468;28;20040;-53
2022/12/29 08:47:14;;;;;;;5.50;2.28;;;;;;;-1.27;81.58;99509.25;5079868;28;20040;-53
2022/12/29 08:50:17;;;;;;;7.30;2.92;;;;;;;-1.21;82.15;99510.19;5082738;28;20059;-52
2022/12/29 08:52:43;;;;;;;7.03;3.53;;;;;;;-1.03;82.06;99499.28;5088683;28;20085;-55
2022/12/29 08:55:28;;;;;;;11.10;2.60;;;;;;;-0.81;82.04;99503.72;5087931;28;20040;-53
2022/12/29 08:57:54;;;;;;;5.10;2.88;;;;;;;-0.61;81.12;99512.38;5088217;28;20047;-53
2022/12/29 09:00:21;;;;;;;8.00;3.28;;;;;;;-0.78;80.68;99469.72;5084973;28;20626;-56
2022/12/29 09:02:47;;;;;;;6.97;2.95;;;;;;;-0.35;80.90;99511.72;5076948;28;20044;-57
2022/12/29 09:05:13;;;;;;;7.18;3.40;;;;;;;-0.36;80.35;99515.09;5085883;28;20490;-57
2022/12/29 09:07:39;;;;;;;7.10;3.25;;;;;;;-0.40;80.14;99514.25;5118174;27;20040;-54
2022/12/29 09:10:24;;;;;;;6.50;3.38;;;;;;;-0.30;79.87;99530.47;5083283;28;20138;-58
2022/12/29 09:12:50;;;;;;;4.60;2.38;;;;;;;-0.54;79.45;99519.25;5104998;27;20062;-56
2022/12/29 09:15:34;;;;;;;4.03;1.92;;;;;;;-0.90;79.54;99496.88;5080277;28;20044;-54
2022/12/29 09:18:19;;;;;;;9.85;3.13;;;;;;;-0.83;80.21;99522.41;5102631;27;20048;-55
2022/12/29 09:21:03;;;;;;;6.40;3.13;;;;;;;-0.79;80.27;99519.06;5085665;28;20043;-62
2022/12/29 09:23:48;;;;;;;7.80;3.03;;;;;;;-0.84;80.03;99519.03;5085058;28;20040;-53
2022/12/29 09:26:14;;;;;;;10.70;4.10;;;;;;;-0.81;80.24;99516.50;5082093;28;20044;-57
2022/12/29 09:28:40;;;;;;;6.30;2.88;;;;;;;-0.79;80.05;99509.72;5088635;28;20040;-57
2022/12/29 09:31:24;;;;;;;6.97;3.33;;;;;;;-0.95;79.93;99475.56;5077390;28;20530;-57
2022/12/29 09:33:50;;;;;;;9.98;3.25;;;;;;;-0.63;79.85;99519.16;5073481;28;20035;-52
2022/12/29 09:36:16;;;;;;;7.68;3.63;;;;;;;-0.66;79.76;99519.16;5085006;28;20050;-57
2022/12/29 09:38:44;;;;;;;7.28;3.40;;;;;;;-0.60;79.88;99519.22;5080393;28;20067;-54
2022/12/29 09:41:43;;;;;;;8.45;3.38;;;;;;;-0.66;79.71;99514.06;5068537;28;20457;-53
2022/12/29 09:44:46;;;;;;;7.88;3.22;;;;;;;-0.78;79.46;99516.50;5080407;28;20044;-55
2022/12/29 09:47:14;;;;;;;7.88;3.75;;;;;;;-0.92;79.86;99518.94;5073730;28;20043;-51
2022/12/29 09:49:45;;;;;;;14.93;3.92;;;;;;;-0.92;80.24;99508.75;5083164;28;20040;-54
2022/12/29 09:52:50;;;;;;;9.82;4.30;;;;;;;-0.80;80.03;99523.31;5085045;28;20043;-55
2022/12/29 09:55:21;;;;;;;4.60;2.88;;;;;;;-0.80;80.00;99517.34;5094378;28;20044;-54
2022/12/29 09:58:22;;;;;;;8.73;4.22;;;;;;;-0.77;80.28;99518.22;5076765;28;20052;-53
2022/12/29 10:01:07;;;;;;;12.50;3.53;;;;;;;-0.74;80.44;99527.59;5086401;28;20068;-49
2022/12/29 10:04:07;;;;;;;11.80;4.78;;;;;;;-0.77;80.24;99525.88;5091710;28;20038;-53
2022/12/29 10:06:35;;;;;;;6.60;3.92;;;;;;;-0.64;80.04;99524.28;5048308;28;20052;-52
2022/12/29 10:09:34;;;;;;;12.73;3.97;;;;;;;-0.90;79.93;99496.00;5074781;28;20040;-55
2022/12/29 10:12:28;;;;;;;9.98;4.68;;;;;;;-0.68;79.88;99520.00;5088387;28;20285;-52
2022/12/29 10:15:25;;;;;;;7.03;3.75;;;;;;;-0.68;79.92;99520.00;5087733;28;20040;-54
2022/12/29 10:18:10;;;;;;;8.57;4.10;;;;;;;-0.81;79.91;99515.63;5081244;28;20147;-52
2022/12/29 10:21:16;;;;;;;11.88;4.50;;;;;;;-0.82;80.09;99513.91;5094118;28;20044;-53
2022/12/29 10:24:03;;;;;;;8.50;4.53;;;;;;;-0.88;80.04;99518.13;5094838;28;20427;-53
2022/12/29 10:26:33;;;;;;;11.35;4.93;;;;;;;-0.70;80.28;99520.00;5078543;28;20051;-53
2022/12/29 10:29:04;;;;;;;9.50;5.00;;;;;;;-0.54;80.19;99514.16;5111989;27;20044;-55
2022/12/29 10:31:43;;;;;;;10.80;5.47;;;;;;;-0.60;79.62;99492.81;5081456;28;20098;-53
2022/12/29 10:34:36;;;;;;;11.60;4.78;;;;;;;-0.37;79.15;99519.38;5083435;28;20040;-55
2022/12/29 10:37:29;;;;;;;11.15;5.03;;;;;;;-0.40;79.29;99516.78;5081524;28;20458;-51
2022/12/29 10:39:55;;;;;;;13.35;6.00;;;;;;;-0.41;78.98;99487.00;5093673;28;20047;-54
2022/12/29 10:42:28;;;;;;;8.38;5.15;;;;;;;0.03;78.88;99520.47;5090601;28;20115;-53
2022/12/29 10:44:55;;;;;;;12.73;5.80;;;;;;;0.13;78.50;99516.25;5087471;28;20542;-54
2022/12/29 10:47:24;;;;;;;13.75;5.53;;;;;;;0.23;78.01;99510.31;5083993;28;20054;-55
2022/12/29 10:49:50;;;;;;;12.30;5.03;;;;;;;0.31;77.42;99508.69;5086194;28;20040;-54
2022/12/29 10:52:17;;;;;;;9.98;5.22;;;;;;;0.30;77.58;99500.16;5081967;28;20044;-55
2022/12/29 10:55:12;;;;;;;12.98;5.20;;;;;;;0.40;77.40;99509.56;5073225;28;20093;-54
2022/12/29 10:58:15;;;;;;;9.68;3.97;;;;;;;0.27;77.10;99504.38;5076040;28;20047;-51
2022/12/29 11:01:20;;;;;;;9.68;5.53;;;;;;;0.18;77.48;99502.66;5079362;28;20052;-51
2022/12/29 11:04:18;;;;;;;12.07;4.70;;;;;;;0.25;77.30;99496.72;5084857;28;20138;-54
2022/12/29 11:06:44;;;;;;;9.93;4.18;;;;;;;-0.11;77.08;99471.88;5098802;28;20074;-54
2022/12/29 11:09:14;;;;;;;8.38;4.35;;;;;;;0.03;77.28;99497.47;5083442;28;20070;-52
2022/12/29 11:11:40;;;;;;;9.15;4.22;;;;;;;-0.03;77.24;99493.19;5084463;28;20059;-51
2022/12/29 11:14:30;;;;;;;10.07;3.95;;;;;;;-0.03;77.43;99502.53;5068491;28;20093;-50
2022/12/29 11:17:15;;;;;;;8.93;4.32;;;;;;;0.04;77.90;99501.75;5079466;28;20040;-52
2022/12/29 11:19:44;;;;;;;10.80;4.47;;;;;;;0.06;77.63;99494.91;5081601;28;20040;-54
2022/12/29 11:22:28;;;;;;;10.48;4.10;;;;;;;0.23;77.81;99495.00;5076722;28;20089;-57
2022/12/29 11:24:55;;;;;;;7.43;4.15;;;;;;;0.14;77.71;99464.28;5077128;28;20039;-56
2022/12/29 11:27:41;;;;;;;10.20;4.00;;;;;;;0.41;77.21;99501.03;5079220;28;20036;-56
2022/12/29 11:30:28;;;;;;;9.65;3.97;;;;;;;0.26;76.74;99495.84;5085623;28;20048;-57
2022/12/29 11:32:54;;;;;;;11.07;4.45;;;;;;;0.30;77.12;99497.59;5088992;28;20523;-54
2022/12/29 11:35:35;;;;;;;8.75;4.68;;;;;;;0.20;77.22;99482.22;5067695;28;20043;-56
2022/12/29 11:38:02;;;;;;;8.95;3.90;;;;;;;0.20;77.19;99492.44;5079175;28;20075;-57
2022/12/29 11:40:28;;;;;;;8.48;4.25;;;;;;;0.02;77.19;99489.78;5088179;28;20131;-56
2022/12/29 11:43:02;;;;;;;12.45;4.72;;;;;;;-0.09;77.55;99485.47;5070390;28;20515;-53
2022/12/29 11:45:33;;;;;;;8.23;3.67;;;;;;;-0.19;77.42;99470.09;5093079;28;20036;-56
2022/12/29 11:48:07;;;;;;;12.57;4.40;;;;;;;-0.10;77.67;99491.44;5071875;28;20060;-53
2022/12/29 11:50:36;;;;;;;9.25;4.15;;;;;;;-0.07;78.13;99496.56;5095615;28;20054;-61
2022/12/29 11:53:24;;;;;;;7.38;3.88;;;;;;;0.03;77.60;99501.72;5071015;28;20060;-53
2022/12/29 11:55:55;;;;;;;8.95;3.67;;;;;;;0.15;77.63;99504.34;5072256;28;20402;-55
2022/12/29 11:58:29;;;;;;;13.50;4.70;;;;;;;-0.10;77.50;99473.53;5091333;28;20058;-52
2022/12/29 12:01:14;;;;;;;11.80;4.93;;;;;;;0.11;78.01;99513.69;5084302;28;20048;-54
2022/12/29 12:03:46;;;;;;;9.40;4.32;;;;;;;0.27;77.66;99524.81;5097766;28;20162;-55
2022/12/29 12:06:16;;;;;;;13.13;4.47;;;;;;;0.34;77.32;99509.53;5088316;28;20086;-56
2022/12/29 12:09:10;;;;;;;7.95;3.80;;;;;;;0.43;77.13;99530.00;5083246;28;20047;-56
2022/12/29 12:11:43;;;;;;;9.05;4.22;;;;;;;0.53;77.01;99532.59;5080683;28;20048;-52
2022/12/29 12:14:27;;;;;;;8.48;4.38;;;;;;;0.58;76.64;99518.97;5058552;28;20066;-52
2022/12/29 12:17:37;;;;;;;9.95;4.45;;;;;;;0.52;76.57;99490.84;5080775;28;20147;-52
2022/12/29 12:20:36;;;;;;;10.48;4.47;;;;;;;0.76;76.56;99519.03;5090151;28;20070;-55
2022/12/29 12:23:18;;;;;;;7.55;4.03;;;;;;;0.77;76.52;99525.88;5079251;28;20152;-55
2022/12/29 12:26:10;;;;;;;8.32;4.40;;;;;;;0.76;76.39;99513.91;5100981;28;20519;-54
2022/12/29 12:29:12;;;;;;;10.80;4.65;;;;;;;0.77;76.19;99515.63;5084492;28;20099;-56
2022/12/29 12:32:02;;;;;;;9.70;4.68;;;;;;;0.68;76.46;99515.59;5085826;28;20067;-52
2022/12/29 12:34:46;;;;;;;;;;;;;;;0.64;76.16;99515.56;5068788;28;20500;-55
2022/12/29 12:37:49;;;;;;;10.90;4.40;;;;;;;0.70;76.72;99518.16;5085357;28;19923;-54
2022/12/29 12:40:46;;;;;;;10.40;4.47;;;;;;;0.81;76.15;99519.03;5093654;28;20047;-51
2022/12/29 12:43:50;;;;;;;9.82;4.47;;;;;;;0.84;76.15;99508.78;5090571;27;20039;-54
2022/12/29 12:46:55;;;;;;;13.00;5.30;;;;;;;0.92;76.74;99517.34;5079457;28;20047;-54
2022/12/29 12:49:33;;;;;;;9.88;4.88;;;;;;;0.92;76.39;99514.81;5059671;28;20534;-53
2022/12/29 12:52:12;;;;;;;10.47;4.70;;;;;;;0.97;76.11;99519.91;5081552;28;20636;-53
2022/12/29 12:55:20;;;;;;;12.93;5.45;;;;;;;0.98;76.06;99512.25;5087234;28;20355;-54
2022/12/29 12:58:05;;;;;;;13.32;6.30;;;;;;;1.02;75.94;99513.09;5085953;28;20098;-54
2022/12/29 13:00:39;;;;;;;16.58;5.53;;;;;;;1.05;76.03;99513.09;5097480;28;20117;-51
2022/12/29 13:03:17;;;;;;;15.25;6.75;;;;;;;1.08;76.07;99516.53;5085476;28;20572;-54
2022/12/29 13:06:10;;;;;;;16.83;6.57;;;;;;;1.11;75.89;99520.78;5086375;28;20422;-55
2022/12/29 13:09:10;;;;;;;13.35;6.03;;;;;;;1.12;75.80;99517.38;5102582;27;20071;-52